createdAt,value
2022-09-04T00:05:02.179Z,89.49
2022-09-04T00:10:33.558Z,89.31
2022-09-04T00:16:05.422Z,89.75
2022-09-04T00:27:17.576Z,89.95
2022-09-04T00:32:49.320Z,89.68
2022-09-04T00:38:23.853Z,89.84
2022-09-04T00:43:55.278Z,89.69
2022-09-04T00:49:27.650Z,89.67
2022-09-04T00:55:05.509Z,89.64
2022-09-04T01:00:37.390Z,90.16
2022-09-04T01:06:08.995Z,90.54
2022-09-04T01:11:40.810Z,91.10
2022-09-04T01:17:12.765Z,90.88
2022-09-04T01:22:45.690Z,90.96
2022-09-04T01:28:18.509Z,90.72
2022-09-04T01:33:49.963Z,90.77
2022-09-04T01:39:21.967Z,91.05
2022-09-04T01:44:53.666Z,90.98
2022-09-04T01:50:31.286Z,90.83
2022-09-04T01:56:02.881Z,90.65
2022-09-04T02:01:34.994Z,90.50
2022-09-04T02:07:06.424Z,90.02
2022-09-04T02:12:38.055Z,89.51
2022-09-04T02:23:41.680Z,87.54
2022-09-04T02:29:13.611Z,87.87
2022-09-04T02:34:45.610Z,88.73
2022-09-04T02:40:17.384Z,89.16
2022-09-04T02:45:49.111Z,89.37
2022-09-04T02:51:20.989Z,89.55
2022-09-04T02:56:53.187Z,89.22
2022-09-04T02:59:16.914Z,88.93
2022-09-04T03:10:20.268Z,89.46
2022-09-04T03:15:52.495Z,89.72
2022-09-04T03:21:24.273Z,89.66
2022-09-04T03:26:55.939Z,89.73
2022-09-04T03:32:27.801Z,89.80
2022-09-04T03:37:59.636Z,89.90
2022-09-04T03:43:31.358Z,90.85
2022-09-04T03:49:03.019Z,90.60
2022-09-04T03:54:34.822Z,91.00
2022-09-04T04:00:06.513Z,91.08
2022-09-04T04:11:10.874Z,90.80
2022-09-04T04:16:42.533Z,90.19
2022-09-04T04:27:43.868Z,90.28
2022-09-04T04:33:15.523Z,90.00
2022-09-04T04:38:47.638Z,90.00
2022-09-04T04:44:19.894Z,90.03
2022-09-04T04:49:51.510Z,89.94
2022-09-04T04:55:23.315Z,90.35
2022-09-04T05:00:55.243Z,90.16
2022-09-04T05:06:26.948Z,90.03
2022-09-04T05:11:58.911Z,89.86
2022-09-04T05:17:31.090Z,89.72
2022-09-04T05:23:02.858Z,89.49
2022-09-04T05:28:34.483Z,89.35
2022-09-04T05:34:06.258Z,89.22
2022-09-04T05:39:37.830Z,89.46
2022-09-04T05:45:09.626Z,88.98
2022-09-04T05:50:41.410Z,88.09
2022-09-04T05:56:13.119Z,87.32
2022-09-04T06:07:16.912Z,83.76
2022-09-04T06:12:48.676Z,79.77
2022-09-04T06:23:49.631Z,71.18
2022-09-04T06:29:21.586Z,69.79
2022-09-04T06:34:53.436Z,64.00
2022-09-04T06:42:37.202Z,61.08
2022-09-04T06:48:08.495Z,58.65
2022-09-04T06:53:40.736Z,57.35
2022-09-04T06:59:12.697Z,57.33
2022-09-04T07:04:44.377Z,54.59
2022-09-04T07:10:15.873Z,53.84
2022-09-04T07:15:47.463Z,54.47
2022-09-04T07:21:19.187Z,52.50
2022-09-04T07:26:51.125Z,51.87
2022-09-04T07:32:22.724Z,50.32
2022-09-04T07:43:23.791Z,50.00
2022-09-04T07:48:55.699Z,47.68
2022-09-04T07:54:27.444Z,47.99
2022-09-04T08:05:31.113Z,47.78
2022-09-04T08:11:02.926Z,46.27
2022-09-04T08:16:34.744Z,45.32
2022-09-04T08:22:06.323Z,47.17
2022-09-04T08:38:39.267Z,46.19
2022-09-04T08:44:10.739Z,45.88
2022-09-04T08:49:42.398Z,46.43
2022-09-04T08:55:14.246Z,46.56
2022-09-04T09:00:45.987Z,45.40
2022-09-04T09:06:17.173Z,46.69
2022-09-04T09:17:19.040Z,46.45
2022-09-04T09:22:50.932Z,46.70
2022-09-04T09:28:22.523Z,47.43
2022-09-04T09:33:53.862Z,46.74
2022-09-04T09:44:54.904Z,49.40
2022-09-04T09:50:26.366Z,50.86
2022-09-04T09:55:57.841Z,52.66
2022-09-04T10:01:29.830Z,53.20
2022-09-04T10:12:31.545Z,53.14
2022-09-04T10:18:03.099Z,53.60
2022-09-04T10:23:34.704Z,53.76
2022-09-04T10:29:05.955Z,53.84
2022-09-04T10:34:37.341Z,52.14
2022-09-04T10:40:09.130Z,51.61
2022-09-04T10:45:40.420Z,51.62
2022-09-04T10:51:11.587Z,51.86
2022-09-04T10:56:42.951Z,51.98
2022-09-04T11:02:14.264Z,52.06
2022-09-04T11:07:45.463Z,50.97
2022-09-04T11:13:16.974Z,50.63
2022-09-04T11:18:48.840Z,49.86
2022-09-04T11:24:20.613Z,50.24
2022-09-04T11:29:52.214Z,50.78
2022-09-04T11:35:24.040Z,50.74
2022-09-04T11:40:55.634Z,49.98
2022-09-04T11:46:27.554Z,49.99
2022-09-04T11:51:59.241Z,50.95
2022-09-04T11:57:31.245Z,50.27
2022-09-04T12:03:02.927Z,50.91
2022-09-04T12:08:34.561Z,50.62
2022-09-04T12:14:06.406Z,48.62
2022-09-04T12:19:38.109Z,49.03
2022-09-04T12:25:09.739Z,47.89
2022-09-04T12:30:41.763Z,48.15
2022-09-04T12:36:13.488Z,48.71
2022-09-04T12:41:49.279Z,49.23
2022-09-04T12:47:17.267Z,48.06
2022-09-04T12:52:48.899Z,48.14
2022-09-04T12:58:20.412Z,48.29
2022-09-04T13:03:51.804Z,48.53
2022-09-04T13:09:23.823Z,47.98
2022-09-04T13:14:55.467Z,48.40
2022-09-04T13:20:27.032Z,46.26
2022-09-04T13:25:59.205Z,47.52
2022-09-04T13:31:31.249Z,47.10
2022-09-04T13:37:02.871Z,46.56
2022-09-04T13:42:34.651Z,46.33
2022-09-04T13:48:06.603Z,46.92
2022-09-04T13:53:38.252Z,47.84
2022-09-04T13:59:10.033Z,45.77
2022-09-04T14:04:41.797Z,45.73
2022-09-04T14:10:13.498Z,46.39
2022-09-04T14:15:45.304Z,48.12
2022-09-04T14:21:17.188Z,48.42
2022-09-04T14:26:48.680Z,48.13
2022-09-04T14:32:20.482Z,45.79
2022-09-04T14:37:52.247Z,46.62
2022-09-04T14:43:24.398Z,45.53
2022-09-04T14:48:55.820Z,44.78
2022-09-04T14:54:27.648Z,46.56
2022-09-04T14:59:59.408Z,45.19
2022-09-04T15:05:31.285Z,45.66
2022-09-04T15:11:03.169Z,46.63
2022-09-04T15:16:34.905Z,44.26
2022-09-04T15:22:06.851Z,43.68
2022-09-04T15:27:38.550Z,44.21
2022-09-04T15:33:10.153Z,43.94
2022-09-04T15:38:41.818Z,44.18
2022-09-04T15:44:13.694Z,43.89
2022-09-04T15:49:45.666Z,42.89
2022-09-04T15:55:17.369Z,42.67
2022-09-04T16:00:48.958Z,43.18
2022-09-04T16:06:20.881Z,44.64
2022-09-04T16:11:52.491Z,44.29
2022-09-04T16:17:25.880Z,44.45
2022-09-04T16:22:57.478Z,44.92
2022-09-04T16:28:29.479Z,44.71
2022-09-04T16:34:00.957Z,44.97
2022-09-04T16:39:32.671Z,45.51
2022-09-04T16:45:04.052Z,45.65
2022-09-04T16:50:36.034Z,45.92
2022-09-04T16:56:07.951Z,45.95
2022-09-04T17:01:39.297Z,46.33
2022-09-04T17:07:11.140Z,46.68
2022-09-04T17:12:43.156Z,47.12
2022-09-04T17:18:14.793Z,47.54
2022-09-04T17:29:03.743Z,48.08
2022-09-04T17:29:33.803Z,48.30
2022-09-04T17:38:42.707Z,48.79
2022-09-04T17:40:55.517Z,49.37
2022-09-04T17:45:53.317Z,50.22
2022-09-04T17:51:25.196Z,50.76
2022-09-04T17:56:56.800Z,51.84
2022-09-04T18:02:28.428Z,52.21
2022-09-04T18:08:07.340Z,53.65
2022-09-04T18:13:37.886Z,55.42
2022-09-04T18:19:03.681Z,55.41
2022-09-04T18:24:35.413Z,56.28
2022-09-04T18:36:15.613Z,56.38
2022-09-04T18:47:28.782Z,59.76
2022-09-04T18:50:46.625Z,56.84
2022-09-04T18:54:35.822Z,61.21
2022-09-04T19:00:08.427Z,58.87
2022-09-04T19:05:44.718Z,61.10
2022-09-04T19:11:20.611Z,61.92
2022-09-04T19:16:42.858Z,61.03
2022-09-04T19:22:14.064Z,61.19
2022-09-04T19:27:45.429Z,62.52
2022-09-04T19:33:16.826Z,62.93
2022-09-04T19:45:03.670Z,62.08
2022-09-04T19:46:07.886Z,63.94
2022-09-04T19:53:20.263Z,64.32
2022-09-04T19:55:26.022Z,63.84
2022-09-04T20:00:55.842Z,65.12
2022-09-04T20:06:27.279Z,64.72
2022-09-04T20:11:58.839Z,66.02
2022-09-04T20:17:30.691Z,66.18
2022-09-04T20:23:02.406Z,65.99
2022-09-04T20:28:34.192Z,66.10
2022-09-04T20:34:08.214Z,68.34
2022-09-04T20:39:37.690Z,67.76
2022-09-04T20:47:59.645Z,68.02
2022-09-04T20:52:59.018Z,68.80
2022-09-04T20:56:13.373Z,67.68
2022-09-04T21:03:22.836Z,69.69
2022-09-04T21:07:15.830Z,71.27
2022-09-04T21:12:46.935Z,70.27
2022-09-04T21:18:18.631Z,70.88
2022-09-04T21:24:02.780Z,70.45
2022-09-04T21:29:21.569Z,71.09
2022-09-04T21:34:53.427Z,69.09
2022-09-04T21:40:50.390Z,72.92
2022-09-04T21:45:56.637Z,74.45
2022-09-04T21:51:29.376Z,75.53
2022-09-04T22:01:11.993Z,76.44
2022-09-04T22:02:52.858Z,75.02
2022-09-04T22:13:12.311Z,76.86
2022-09-04T22:13:49.197Z,75.37
2022-09-04T22:19:16.207Z,74.42
2022-09-04T22:24:41.286Z,76.53
2022-09-04T22:30:12.147Z,75.58
2022-09-04T22:35:43.688Z,75.85
2022-09-04T22:46:44.917Z,78.62
2022-09-04T22:52:16.670Z,77.88
2022-09-04T22:57:48.569Z,79.27
2022-09-04T23:03:20.388Z,78.96
2022-09-04T23:13:50.102Z,81.00
2022-09-04T23:14:24.107Z,80.93
2022-09-04T23:19:55.368Z,78.23
2022-09-04T23:36:33.649Z,74.92
2022-09-04T23:42:02.319Z,78.46
2022-09-04T23:47:48.213Z,81.75
2022-09-04T23:53:05.821Z,81.43
2022-09-04T23:58:47.244Z,81.70
